Time;durP1;ratioP1;P1;durP2;ratioP2;P2;SDS_P1;SDS_P2;PMS_P1;PMS_P2;Temp;Humidity;BMP_temperature;BMP_pressure;BME280_temperature;BME280_humidity;BME280_pressure;Samples;Min_cycle;Max_cycle;Signal;HPM_P1;HPM_P2
2023/10/22 00:01:18;;;;;;;2.15;1.00;;;;;;;8.91;100.00;91698.72;6306253;22;20007;-80
2023/10/22 00:03:44;;;;;;;1.35;1.10;;;;;;;8.91;100.00;91696.88;6305385;22;20361;-81
2023/10/22 00:06:09;;;;;;;2.42;1.20;;;;;;;8.93;100.00;91705.19;6306576;22;20037;-82
2023/10/22 00:08:35;;;;;;;1.40;1.10;;;;;;;8.96;100.00;91691.56;6278798;22;20038;-80
2023/10/22 00:11:01;;;;;;;2.70;1.27;;;;;;;9.00;100.00;91693.56;6252354;22;20407;-81
2023/10/22 00:13:30;;;;;;;1.60;1.20;;;;;;;8.99;100.00;91705.88;6278592;22;20007;-80
2023/10/22 00:15:56;;;;;;;3.50;1.20;;;;;;;9.00;100.00;91706.63;6304944;22;20064;-80
2023/10/22 00:18:22;;;;;;;1.60;1.17;;;;;;;8.94;100.00;91714.56;6306367;22;20012;-80
2023/10/22 00:20:47;;;;;;;2.10;1.30;;;;;;;8.95;100.00;91712.75;6306596;22;20073;-80
2023/10/22 00:23:13;;;;;;;3.00;1.15;;;;;;;8.95;100.00;91718.72;6305489;22;19998;-81
2023/10/22 00:25:38;;;;;;;1.27;1.10;;;;;;;8.93;100.00;91707.81;6278632;22;20019;-80
2023/10/22 00:28:04;;;;;;;3.35;1.30;;;;;;;8.95;100.00;91716.13;6278159;22;20019;-80
2023/10/22 00:30:34;;;;;;;1.73;1.30;;;;;;;8.97;100.00;91731.50;6278852;22;20304;-81
2023/10/22 00:32:59;;;;;;;2.28;1.25;;;;;;;8.94;100.00;91727.63;6305600;22;20074;-80
2023/10/22 00:35:25;;;;;;;1.17;1.00;;;;;;;8.95;100.00;91734.38;6306371;22;20011;-79
2023/10/22 00:37:51;;;;;;;3.00;1.30;;;;;;;8.91;100.00;91730.81;6306567;22;20102;-81
2023/10/22 00:40:16;;;;;;;1.20;1.02;;;;;;;8.92;100.00;91740.19;6252873;22;20320;-81
2023/10/22 00:42:42;;;;;;;2.10;1.20;;;;;;;8.90;100.00;91739.72;6277925;22;20086;-81
2023/10/22 00:45:08;;;;;;;4.72;1.55;;;;;;;8.88;100.00;91738.47;6305806;22;20043;-81
2023/10/22 00:47:35;;;;;;;1.83;1.30;;;;;;;8.86;100.00;91745.81;6307270;22;20405;-81
2023/10/22 00:50:02;;;;;;;1.92;1.20;;;;;;;8.83;100.00;91749.78;6305428;22;20356;-81
2023/10/22 00:52:28;;;;;;;2.72;1.10;;;;;;;8.85;100.00;91752.88;6278327;22;20518;-80
2023/10/22 00:54:55;;;;;;;1.00;0.90;;;;;;;8.87;100.00;91745.53;6279488;22;20011;-81
2023/10/22 00:57:24;;;;;;;1.77;1.20;;;;;;;8.90;100.00;91754.63;6278813;22;20338;-79
2023/10/22 00:59:53;;;;;;;1.77;1.00;;;;;;;8.81;100.00;91751.91;6278827;22;20019;-81
2023/10/22 01:02:20;;;;;;;3.85;0.90;;;;;;;8.72;100.00;91753.66;6305362;22;20011;-81
2023/10/22 01:04:45;;;;;;;1.25;1.10;;;;;;;8.66;100.00;91749.63;6278634;22;20062;-81
2023/10/22 01:07:11;;;;;;;1.15;0.90;;;;;;;8.59;100.00;91749.25;6306457;22;20074;-79
2023/10/22 01:09:37;;;;;;;1.58;1.20;;;;;;;8.55;100.00;91751.66;6278975;22;20018;-81
2023/10/22 01:12:04;;;;;;;1.45;1.10;;;;;;;8.50;100.00;91755.13;6306811;22;20640;-81
2023/10/22 01:14:31;;;;;;;0.90;0.90;;;;;;;8.47;100.00;91753.09;6278226;22;20065;-81
2023/10/22 01:16:57;;;;;;;3.28;0.90;;;;;;;8.43;100.00;91756.59;6305809;22;20050;-80
2023/10/22 01:19:23;;;;;;;2.60;1.13;;;;;;;8.34;100.00;91753.84;6279086;22;20022;-80
2023/10/22 01:21:49;;;;;;;1.35;1.10;;;;;;;8.23;100.00;91745.44;6279551;22;20442;-80
2023/10/22 01:24:14;;;;;;;0.88;0.82;;;;;;;8.18;100.00;91745.53;6306938;22;20030;-81
2023/10/22 01:26:44;;;;;;;1.13;1.02;;;;;;;8.13;100.00;91743.78;6279436;22;20025;-79
2023/10/22 01:29:10;;;;;;;1.05;0.95;;;;;;;8.13;100.00;91748.25;6279256;22;20003;-81
2023/10/22 01:31:37;;;;;;;0.70;0.70;;;;;;;8.09;100.00;91749.88;6279505;22;20088;-80
2023/10/22 01:34:04;;;;;;;1.23;0.93;;;;;;;8.11;100.00;91748.53;6306221;22;19999;-81
2023/10/22 01:36:30;;;;;;;1.70;1.10;;;;;;;8.09;100.00;91748.03;6279274;22;20038;-81
2023/10/22 01:38:57;;;;;;;2.05;1.10;;;;;;;8.08;100.00;91749.09;6279639;22;20017;-80
2023/10/22 01:41:23;;;;;;;2.90;0.98;;;;;;;8.05;100.00;91749.66;6306656;22;20007;-81
2023/10/22 01:43:49;;;;;;;0.93;0.80;;;;;;;8.01;100.00;91750.53;6305376;22;20007;-81
2023/10/22 01:46:14;;;;;;;1.30;0.88;;;;;;;7.95;100.00;91751.66;6306865;22;20213;-82
2023/10/22 01:48:41;;;;;;;2.65;1.00;;;;;;;7.87;100.00;91751.28;6278913;22;20681;-81
2023/10/22 01:51:06;;;;;;;0.90;0.90;;;;;;;7.83;100.00;91744.31;6253054;22;20061;-81
2023/10/22 01:53:33;;;;;;;1.35;0.90;;;;;;;7.82;100.00;91750.59;6278509;22;20007;-81
2023/10/22 01:55:58;;;;;;;1.20;1.00;;;;;;;7.78;100.00;91752.22;6305430;22;20016;-80
2023/10/22 01:58:24;;;;;;;2.97;0.80;;;;;;;7.71;100.00;91752.59;6307822;22;20007;-80
2023/10/22 02:01:00;;;;;;;2.22;0.90;;;;;;;7.68;100.00;91758.38;6278457;22;20022;-81
2023/10/22 02:03:26;;;;;;;1.17;1.00;;;;;;;7.70;100.00;91761.47;6306863;22;20003;-82
2023/10/22 02:05:52;;;;;;;2.83;1.15;;;;;;;7.68;100.00;91763.59;6305532;22;20015;-80
2023/10/22 02:08:17;;;;;;;2.75;1.05;;;;;;;7.67;100.00;91767.25;6278888;22;20011;-79
2023/10/22 02:10:43;;;;;;;1.10;1.00;;;;;;;7.65;100.00;91770.13;6305116;22;20090;-81
2023/10/22 02:13:08;;;;;;;1.77;1.00;;;;;;;7.64;100.00;91778.25;6251750;22;20060;-81
2023/10/22 02:15:34;;;;;;;3.88;1.08;;;;;;;7.61;100.00;91781.41;6279263;22;20019;-80
2023/10/22 02:18:00;;;;;;;2.55;1.00;;;;;;;7.59;100.00;91776.50;6305152;22;20003;-81
2023/10/22 02:20:25;;;;;;;1.10;1.00;;;;;;;7.59;100.00;91783.50;6276848;22;20019;-80
2023/10/22 02:22:51;;;;;;;6.05;1.27;;;;;;;7.59;100.00;91781.72;6304949;22;20468;-81
2023/10/22 02:25:17;;;;;;;1.48;1.00;;;;;;;7.62;100.00;91796.75;6276684;22;20339;-81
2023/10/22 02:27:43;;;;;;;1.60;1.00;;;;;;;7.62;100.00;91791.53;6277026;22;20038;-81
2023/10/22 02:30:09;;;;;;;3.95;1.13;;;;;;;7.62;100.00;91796.75;6304927;22;20376;-81
2023/10/22 02:32:34;;;;;;;1.85;1.00;;;;;;;7.64;100.00;91794.66;6305335;22;20003;-81
2023/10/22 02:35:00;;;;;;;1.00;0.90;;;;;;;7.63;100.00;91798.31;6277582;22;20086;-80
2023/10/22 02:37:26;;;;;;;3.63;1.10;;;;;;;7.60;100.00;91785.84;6278436;22;20429;-80
2023/10/22 02:39:51;;;;;;;1.02;0.90;;;;;;;7.65;100.00;91787.59;6306546;22;20012;-81
2023/10/22 02:42:17;;;;;;;1.00;0.85;;;;;;;7.68;100.00;91780.00;6305667;22;19999;-80
2023/10/22 02:44:43;;;;;;;0.70;0.70;;;;;;;7.70;100.00;91777.88;6253463;22;20349;-80
2023/10/22 02:47:08;;;;;;;1.00;0.90;;;;;;;7.74;100.00;91782.50;6305964;22;20042;-80
2023/10/22 02:49:34;;;;;;;0.88;0.85;;;;;;;7.74;100.00;91782.50;6277896;22;20110;-81
2023/10/22 02:52:01;;;;;;;1.00;0.90;;;;;;;7.75;100.00;91790.06;6305003;22;20539;-82
2023/10/22 02:54:27;;;;;;;1.25;1.00;;;;;;;7.76;100.00;91791.59;6305778;22;20022;-81
2023/10/22 02:56:52;;;;;;;1.27;1.00;;;;;;;7.77;100.00;91787.94;6277596;22;20011;-81
2023/10/22 02:59:18;;;;;;;1.65;1.08;;;;;;;7.74;100.00;91780.69;6278509;22;20011;-79
2023/10/22 03:01:45;;;;;;;1.15;0.95;;;;;;;7.79;100.00;91785.81;6279783;22;20007;-82
2023/10/22 03:04:10;;;;;;;1.00;0.90;;;;;;;7.81;100.00;91793.34;6252565;22;20524;-81
2023/10/22 03:06:36;;;;;;;3.85;1.00;;;;;;;7.82;100.00;91802.72;6277956;22;20076;-81
2023/10/22 03:09:03;;;;;;;1.15;1.00;;;;;;;7.81;100.00;91799.31;6304771;22;20086;-81
2023/10/22 03:11:29;;;;;;;1.52;0.90;;;;;;;7.80;100.00;91797.00;6251878;22;20441;-81
2023/10/22 03:13:54;;;;;;;1.15;1.00;;;;;;;7.84;100.00;91798.00;6277725;22;20012;-81
2023/10/22 03:16:20;;;;;;;0.88;0.82;;;;;;;7.84;100.00;91803.97;6276933;22;20079;-81
2023/10/22 03:18:47;;;;;;;1.38;0.98;;;;;;;7.83;100.00;91812.06;6304600;22;20038;-81
2023/10/22 03:21:17;;;;;;;3.63;1.00;;;;;;;7.81;100.00;91812.34;6278768;22;19999;-79
2023/10/22 03:23:45;;;;;;;1.83;1.10;;;;;;;7.80;100.00;91817.84;6305196;22;20015;-80
2023/10/22 03:26:17;;;;;;;1.15;1.00;;;;;;;7.78;100.00;91814.75;6304972;22;20074;-81
2023/10/22 03:28:44;;;;;;;1.10;0.90;;;;;;;7.77;100.00;91819.22;6279344;22;20033;-81
2023/10/22 03:31:11;;;;;;;1.15;0.80;;;;;;;7.74;100.00;91816.38;6253937;22;20007;-87
2023/10/22 03:33:37;;;;;;;9.93;1.52;;;;;;;7.75;100.00;91830.97;6306811;22;20007;-80
2023/10/22 03:36:04;;;;;;;1.70;0.90;;;;;;;7.74;100.00;91839.84;6307863;22;20366;-82
2023/10/22 03:38:30;;;;;;;1.10;0.98;;;;;;;7.72;100.00;91833.09;6279828;22;20003;-80
2023/10/22 03:41:02;;;;;;;10.13;4.13;;;;;;;7.69;100.00;91838.06;6307670;22;20332;-81
2023/10/22 03:43:29;;;;;;;;;;;;;;;7.68;100.00;91852.94;6307514;22;20015;-81
2023/10/22 03:45:55;;;;;;;8.90;3.90;;;;;;;7.60;100.00;91839.78;6306752;22;19910;-81
2023/10/22 03:48:23;;;;;;;5.05;2.55;;;;;;;7.61;100.00;91846.53;6254031;22;20023;-81
2023/10/22 03:50:49;;;;;;;3.88;1.73;;;;;;;7.57;100.00;91850.78;6279068;22;20088;-81
2023/10/22 03:53:17;;;;;;;2.72;1.42;;;;;;;7.55;100.00;91848.44;6252919;22;20011;-81
2023/10/22 03:55:43;;;;;;;2.67;1.10;;;;;;;7.51;100.00;91853.44;6253982;22;20015;-80
2023/10/22 03:58:09;;;;;;;1.10;0.98;;;;;;;7.51;100.00;91853.44;6307320;22;20009;-80
2023/10/22 04:00:34;;;;;;;1.75;1.20;;;;;;;7.52;100.00;91862.03;6306706;22;20026;-81
2023/10/22 04:03:01;;;;;;;0.98;0.98;;;;;;;7.51;100.00;91858.63;6307470;22;20011;-81
2023/10/22 04:05:27;;;;;;;2.10;1.10;;;;;;;7.50;100.00;91856.34;6307060;22;20056;-81
2023/10/22 04:07:53;;;;;;;1.67;1.13;;;;;;;7.51;100.00;91860.47;6279882;22;20003;-82
2023/10/22 04:10:19;;;;;;;2.22;1.10;;;;;;;7.49;100.00;91862.59;6306652;22;20450;-81
2023/10/22 04:12:45;;;;;;;1.15;0.95;;;;;;;7.48;100.00;91867.03;6306186;22;20011;-81
2023/10/22 04:15:11;;;;;;;3.90;1.38;;;;;;;7.47;100.00;91872.50;6305768;22;20026;-81
2023/10/22 04:17:37;;;;;;;1.10;1.00;;;;;;;7.47;100.00;91872.50;6306034;22;20451;-81
2023/10/22 04:20:03;;;;;;;3.50;1.17;;;;;;;7.45;100.00;91866.81;6305821;22;20003;-82
2023/10/22 04:22:29;;;;;;;1.13;0.90;;;;;;;7.46;100.00;91876.19;6278912;22;20021;-80
2023/10/22 04:24:55;;;;;;;1.20;1.08;;;;;;;7.47;100.00;91877.72;6253482;22;20138;-82
2023/10/22 04:27:20;;;;;;;1.55;1.10;;;;;;;7.46;100.00;91876.19;6306183;22;20034;-81
2023/10/22 04:29:46;;;;;;;1.67;1.00;;;;;;;7.44;100.00;91886.88;6305626;22;20014;-81
2023/10/22 04:32:13;;;;;;;3.17;1.10;;;;;;;7.43;100.00;91893.13;6279601;22;20019;-81
2023/10/22 04:34:39;;;;;;;1.10;0.90;;;;;;;7.43;100.00;91893.13;6306143;22;20239;-80
2023/10/22 04:37:06;;;;;;;4.47;1.00;;;;;;;7.43;100.00;91887.13;6306782;22;20228;-80
2023/10/22 04:39:32;;;;;;;1.45;1.05;;;;;;;7.42;100.00;91898.63;6278814;22;20460;-80
2023/10/22 04:41:58;;;;;;;2.28;1.30;;;;;;;7.42;100.00;91904.59;6305847;22;20094;-82
2023/10/22 04:44:23;;;;;;;1.27;1.10;;;;;;;7.40;100.00;91900.72;6306465;22;19991;-81
2023/10/22 04:46:52;;;;;;;0.90;0.90;;;;;;;7.39;100.00;91907.78;6305208;22;20022;-82
2023/10/22 04:49:18;;;;;;;2.20;1.02;;;;;;;7.39;100.00;91909.59;6306347;22;20037;-80
2023/10/22 04:51:43;;;;;;;1.58;0.95;;;;;;;7.40;100.00;91909.31;6305785;22;20012;-79
2023/10/22 04:54:09;;;;;;;1.63;1.10;;;;;;;7.41;100.00;91910.09;6304984;22;20007;-82
2023/10/22 04:56:35;;;;;;;1.95;1.02;;;;;;;7.41;100.00;91905.66;6305942;22;20030;-81
2023/10/22 04:59:01;;;;;;;1.92;0.90;;;;;;;7.45;100.00;91917.06;6253182;22;20089;-81
2023/10/22 05:01:26;;;;;;;1.98;1.10;;;;;;;7.48;100.00;91924.31;6304833;22;20005;-81
2023/10/22 05:03:52;;;;;;;4.75;1.00;;;;;;;7.51;100.00;91926.34;6278391;22;20022;-82
2023/10/22 05:06:18;;;;;;;1.25;1.00;;;;;;;7.54;100.00;91929.44;6305594;22;20015;-82
2023/10/22 05:08:43;;;;;;;1.27;1.00;;;;;;;7.58;100.00;91925.25;6305870;22;20078;-81
2023/10/22 05:11:13;;;;;;;2.22;1.10;;;;;;;7.60;100.00;91929.09;6276839;22;20359;-79
2023/10/22 05:13:39;;;;;;;4.50;1.15;;;;;;;7.63;100.00;91931.16;6278714;22;20412;-79
2023/10/22 05:16:07;;;;;;;1.38;1.10;;;;;;;7.65;100.00;91933.47;6278273;22;20003;-80
2023/10/22 05:18:33;;;;;;;6.13;1.10;;;;;;;7.64;100.00;91930.09;6304906;22;20345;-80
2023/10/22 05:21:06;;;;;;;1.55;1.17;;;;;;;7.66;100.00;91933.19;6277659;22;20014;-81
2023/10/22 05:23:33;;;;;;;2.15;1.40;;;;;;;7.67;100.00;91939.19;6304940;22;20011;-80
2023/10/22 05:26:16;;;;;;;2.17;1.23;;;;;;;7.66;100.00;91943.63;6304714;22;19999;-80
2023/10/22 05:28:43;;;;;;;2.13;1.40;;;;;;;7.65;100.00;91939.44;6277642;22;20119;-80
2023/10/22 05:31:13;;;;;;;3.47;1.17;;;;;;;7.65;100.00;91933.47;6305037;22;20007;-81
2023/10/22 05:33:39;;;;;;;1.55;1.23;;;;;;;7.65;100.00;91941.28;6277590;22;20009;-81
2023/10/22 05:36:13;;;;;;;1.23;0.80;;;;;;;7.67;100.00;91939.94;6278984;22;20097;-79
2023/10/22 05:38:38;;;;;;;4.68;2.00;;;;;;;7.66;100.00;91948.06;6305054;22;20011;-80
2023/10/22 05:41:04;;;;;;;6.78;3.53;;;;;;;7.65;100.00;91943.91;6304531;22;20011;-81
2023/10/22 05:43:30;;;;;;;8.63;2.95;;;;;;;7.67;100.00;91949.59;6227356;22;20096;-81
2023/10/22 05:45:56;;;;;;;5.18;2.60;;;;;;;7.67;100.00;91950.38;6305228;22;20019;-82
2023/10/22 05:48:22;;;;;;;5.45;2.10;;;;;;;7.68;100.00;91957.16;6277549;22;20019;-81
2023/10/22 05:50:47;;;;;;;3.08;1.90;;;;;;;7.66;100.00;91951.44;6278081;22;20019;-81
2023/10/22 05:53:13;;;;;;;3.38;1.80;;;;;;;7.65;100.00;91956.91;6305757;22;20486;-81
2023/10/22 05:55:39;;;;;;;3.15;1.70;;;;;;;7.62;100.00;91954.88;6252226;22;20041;-82
2023/10/22 05:58:06;;;;;;;3.25;1.95;;;;;;;7.58;100.00;91962.47;6277484;22;20460;-79
2023/10/22 06:00:31;;;;;;;3.30;1.60;;;;;;;7.55;100.00;91963.03;6306094;22;20048;-80
2023/10/22 06:02:57;;;;;;;5.47;1.80;;;;;;;7.55;100.00;91970.09;6305963;22;20436;-81
2023/10/22 06:05:23;;;;;;;1.63;1.10;;;;;;;7.55;100.00;91976.06;6305398;22;20011;-81
2023/10/22 06:07:51;;;;;;;2.15;1.35;;;;;;;7.54;100.00;91976.34;6276039;22;20318;-81
2023/10/22 06:10:16;;;;;;;3.97;1.67;;;;;;;7.54;100.00;91989.34;6277805;22;20031;-81
2023/10/22 06:12:42;;;;;;;3.75;1.88;;;;;;;7.54;100.00;91987.53;6252605;22;20015;-82
2023/10/22 06:15:08;;;;;;;3.80;2.00;;;;;;;7.56;100.00;91992.47;6278846;22;20011;-80
2023/10/22 06:17:34;;;;;;;3.53;1.70;;;;;;;7.53;100.00;91988.59;6306926;22;20094;-81
2023/10/22 06:20:00;;;;;;;2.65;1.50;;;;;;;7.58;100.00;91995.56;6305259;22;20015;-85
2023/10/22 06:22:26;;;;;;;1.70;1.23;;;;;;;7.59;100.00;92002.31;6305679;22;20015;-80
2023/10/22 06:24:51;;;;;;;2.78;1.70;;;;;;;7.63;100.00;92004.09;6308310;22;20069;-80
2023/10/22 06:27:17;;;;;;;5.60;2.97;;;;;;;7.69;100.00;92015.22;6281847;22;19999;-83
2023/10/22 06:29:47;;;;;;;5.00;2.25;;;;;;;7.72;100.00;92017.25;6309535;22;20063;-80
2023/10/22 06:32:13;;;;;;;3.67;2.22;;;;;;;7.77;100.00;92014.63;6277387;22;20046;-80
2023/10/22 06:34:38;;;;;;;4.88;2.38;;;;;;;7.81;100.00;92023.41;6255216;22;20433;-80
2023/10/22 06:37:04;;;;;;;5.65;2.67;;;;;;;7.87;100.00;92021.53;6305379;22;20027;-82
2023/10/22 06:39:29;;;;;;;6.60;2.83;;;;;;;8.27;100.00;92029.88;6306601;22;20375;-81
2023/10/22 06:41:55;;;;;;;8.75;3.80;;;;;;;9.47;100.00;92028.47;6306415;22;20048;-81
2023/10/22 06:44:21;;;;;;;15.43;4.55;;;;;;;10.56;100.00;92036.47;6278936;22;20313;-83
2023/10/22 06:46:46;;;;;;;4.43;2.00;;;;;;;11.60;100.00;92031.84;6306023;22;20021;-82
2023/10/22 06:49:12;;;;;;;7.55;3.08;;;;;;;12.54;100.00;92030.81;6306015;22;20022;-83
2023/10/22 06:51:38;;;;;;;11.00;3.90;;;;;;;13.38;100.00;92037.41;6303560;22;20091;-83
2023/10/22 06:54:05;;;;;;;8.88;3.30;;;;;;;14.27;100.00;92039.31;6307305;22;20007;-82
2023/10/22 06:56:31;;;;;;;6.47;2.63;;;;;;;15.10;100.00;92048.34;6255064;22;20026;-83
2023/10/22 06:58:56;;;;;;;7.13;2.20;;;;;;;15.95;100.00;92053.06;6309883;22;19999;-84
2023/10/22 07:01:22;;;;;;;4.30;1.80;;;;;;;16.64;100.00;92043.44;6281272;22;20566;-83
2023/10/22 07:03:48;;;;;;;2.55;1.50;;;;;;;17.69;100.00;92047.75;6308654;22;19995;-83
2023/10/22 07:06:14;;;;;;;6.20;1.40;;;;;;;17.78;100.00;92055.53;6306938;22;20019;-85
2023/10/22 07:08:41;;;;;;;5.07;1.80;;;;;;;17.87;100.00;92058.06;6258485;22;20098;-83
2023/10/22 07:11:07;;;;;;;6.25;2.03;;;;;;;18.46;100.00;92056.38;6302787;22;20026;-83
2023/10/22 07:13:33;;;;;;;5.40;2.15;;;;;;;18.74;100.00;92058.91;6277730;22;20004;-85
2023/10/22 07:15:58;;;;;;;5.82;1.80;;;;;;;19.40;100.00;92061.75;6277065;22;20454;-82
2023/10/22 07:18:24;;;;;;;3.55;2.10;;;;;;;18.68;100.00;92061.03;6302661;22;20065;-86
2023/10/22 07:20:50;;;;;;;3.08;1.60;;;;;;;17.55;100.00;92063.28;6223112;22;20022;-84
2023/10/22 07:23:16;;;;;;;2.72;1.38;;;;;;;16.70;100.00;92062.47;6277205;22;20022;-84
2023/10/22 07:25:42;;;;;;;8.50;1.58;;;;;;;15.91;100.00;92067.25;6250410;22;20011;-85
2023/10/22 07:28:08;;;;;;;2.22;1.23;;;;;;;15.03;100.00;92069.19;6274952;22;19999;-83
2023/10/22 07:30:33;;;;;;;2.88;1.20;;;;;;;14.65;100.00;92065.59;6274839;22;20023;-87
2023/10/22 07:32:59;;;;;;;2.75;1.25;;;;;;;13.99;100.00;92066.13;6274627;22;20030;-82
2023/10/22 07:35:25;;;;;;;3.13;1.65;;;;;;;13.51;100.00;92065.38;6271928;22;20011;-84
2023/10/22 07:37:50;;;;;;;3.47;1.70;;;;;;;13.25;100.00;92064.63;6273411;22;20034;-83
2023/10/22 07:40:20;;;;;;;3.42;1.63;;;;;;;12.89;100.00;92074.38;6303145;22;20531;-83
2023/10/22 07:42:48;;;;;;;3.58;1.63;;;;;;;12.85;100.00;92070.81;6303612;22;19999;-84
2023/10/22 07:45:14;;;;;;;4.50;1.67;;;;;;;12.70;100.00;92072.06;6305335;22;20042;-84
2023/10/22 07:47:40;;;;;;;3.63;1.85;;;;;;;12.56;100.00;92078.53;6305524;22;20022;-83
2023/10/22 07:50:07;;;;;;;4.47;2.15;;;;;;;12.18;100.00;92077.25;6276222;22;20078;-83
2023/10/22 07:52:34;;;;;;;4.03;1.40;;;;;;;12.40;100.00;92083.47;6276087;22;20011;-85
2023/10/22 07:55:00;;;;;;;3.65;1.52;;;;;;;12.38;100.00;92083.75;6303184;22;20007;-83
2023/10/22 07:57:27;;;;;;;3.85;1.75;;;;;;;12.29;100.00;92089.03;6302603;22;20364;-84
2023/10/22 07:59:54;;;;;;;3.22;1.58;;;;;;;11.96;100.00;92103.59;6277341;22;20011;-83
2023/10/22 08:02:20;;;;;;;4.00;1.60;;;;;;;12.02;100.00;92094.47;6276618;22;20026;-84
2023/10/22 08:04:45;;;;;;;2.72;1.45;;;;;;;11.93;100.00;92102.31;6252320;22;20011;-83
2023/10/22 08:07:11;;;;;;;1.70;1.13;;;;;;;11.61;100.00;92108.63;6277564;22;19999;-82
2023/10/22 08:09:37;;;;;;;1.77;1.13;;;;;;;11.61;100.00;92101.53;6273005;22;20019;-82
2023/10/22 08:12:03;;;;;;;2.65;1.38;;;;;;;11.55;100.00;92102.75;6272435;22;20072;-83
2023/10/22 08:14:28;;;;;;;3.85;1.23;;;;;;;11.62;100.00;92108.34;6250433;22;20021;-83
2023/10/22 08:16:54;;;;;;;4.30;1.67;;;;;;;11.73;100.00;92101.00;6303764;22;20007;-83
2023/10/22 08:19:20;;;;;;;2.22;1.52;;;;;;;11.74;100.00;92112.25;6302236;22;20050;-82
2023/10/22 08:21:46;;;;;;;3.40;1.52;;;;;;;11.86;100.00;92120.31;6300552;22;20177;-83
2023/10/22 08:24:11;;;;;;;5.13;2.83;;;;;;;11.83;100.00;92119.06;6299923;22;20015;-83
2023/10/22 08:26:37;;;;;;;6.63;3.65;;;;;;;11.94;100.00;92118.84;6300177;22;20003;-83
2023/10/22 08:29:02;;;;;;;7.65;3.50;;;;;;;11.99;100.00;92122.09;6273760;22;20022;-83
2023/10/22 08:31:28;;;;;;;4.53;2.50;;;;;;;12.01;100.00;92134.91;6302057;22;20034;-83
2023/10/22 08:33:54;;;;;;;4.80;2.28;;;;;;;11.97;100.00;92128.72;6272909;22;20056;-82
2023/10/22 08:36:19;;;;;;;4.55;2.50;;;;;;;11.97;100.00;92129.50;6274168;22;20056;-83
2023/10/22 08:38:45;;;;;;;2.80;1.70;;;;;;;12.10;100.00;92138.34;6247735;22;20300;-83
2023/10/22 08:41:22;;;;;;;6.43;4.50;;;;;;;12.13;100.00;92137.72;6248223;22;20106;-83
2023/10/22 08:43:48;;;;;;;6.05;4.13;;;;;;;12.19;100.00;92139.16;6302850;22;20234;-83
2023/10/22 08:46:15;;;;;;;7.40;4.88;;;;;;;12.32;100.00;92136.72;6304689;22;20098;-84
2023/10/22 08:48:41;;;;;;;6.65;4.22;;;;;;;12.45;100.00;92138.44;6304890;22;20019;-83
2023/10/22 08:51:10;;;;;;;4.70;2.60;;;;;;;12.47;100.00;92142.34;6305415;22;19999;-82
2023/10/22 08:53:36;;;;;;;4.85;2.70;;;;;;;12.46;100.00;92140.00;6305181;22;20011;-81
2023/10/22 08:56:03;;;;;;;3.97;2.10;;;;;;;12.46;100.00;92153.13;6306939;22;20029;-82
2023/10/22 08:58:29;;;;;;;3.53;2.10;;;;;;;12.37;100.00;92147.09;6306623;22;20011;-82
2023/10/22 09:00:54;;;;;;;3.42;2.00;;;;;;;12.45;100.00;92144.47;6279248;22;20000;-82
2023/10/22 09:03:22;;;;;;;3.00;1.73;;;;;;;12.36;100.00;92148.94;6307457;22;20011;-82
2023/10/22 09:05:48;;;;;;;3.47;1.90;;;;;;;12.39;100.00;92144.94;6306340;22;20499;-82
2023/10/22 09:08:17;;;;;;;4.65;1.70;;;;;;;12.45;100.00;92152.34;6278552;22;20348;-82
2023/10/22 09:10:43;;;;;;;3.80;1.67;;;;;;;12.37;100.00;92142.59;6305107;22;20011;-82
2023/10/22 09:13:12;;;;;;;3.25;1.80;;;;;;;12.43;100.00;92146.63;6274983;22;20620;-83
2023/10/22 09:15:45;;;;;;;4.40;1.60;;;;;;;12.57;100.00;92159.63;6304239;22;19999;-83
2023/10/22 09:18:11;;;;;;;3.85;1.52;;;;;;;12.55;100.00;92153.16;6276656;22;20026;-84
2023/10/22 09:20:38;;;;;;;2.42;1.40;;;;;;;12.37;100.00;92147.09;6273028;22;20057;-80
2023/10/22 09:23:20;;;;;;;6.05;1.60;;;;;;;12.28;100.00;92163.56;6302081;22;20264;-83
2023/10/22 09:25:48;;;;;;;2.67;1.70;;;;;;;12.26;100.00;92165.72;6300580;22;20015;-84
2023/10/22 09:28:18;;;;;;;2.15;1.40;;;;;;;12.29;100.00;92162.50;6299824;22;20009;-80
2023/10/22 09:30:43;;;;;;;2.92;1.50;;;;;;;12.23;100.00;92165.56;6272906;22;20042;-83
2023/10/22 09:33:10;;;;;;;5.03;1.45;;;;;;;12.36;100.00;92171.75;6300848;22;20006;-83
2023/10/22 09:35:40;;;;;;;3.25;1.50;;;;;;;12.44;100.00;92174.41;6302425;22;20019;-84
2023/10/22 09:38:05;;;;;;;2.17;1.40;;;;;;;12.62;100.00;92177.88;6273596;22;20071;-83
2023/10/22 09:40:33;;;;;;;3.75;1.40;;;;;;;12.63;100.00;92176.00;6300370;22;20007;-81
2023/10/22 09:43:01;;;;;;;3.03;1.38;;;;;;;12.70;100.00;92174.50;6249984;22;20029;-82
2023/10/22 09:45:29;;;;;;;2.92;1.42;;;;;;;12.92;100.00;92175.44;6304871;22;20046;-81
2023/10/22 09:47:56;;;;;;;2.90;1.27;;;;;;;13.20;100.00;92183.81;6277756;22;20015;-82
2023/10/22 09:50:22;;;;;;;1.67;1.23;;;;;;;13.54;100.00;92184.91;6305112;22;20368;-82
2023/10/22 09:52:51;;;;;;;1.88;1.27;;;;;;;13.61;100.00;92187.09;6276987;22;20079;-82
2023/10/22 09:55:17;;;;;;;2.08;1.13;;;;;;;13.68;100.00;92177.63;6277013;22;20027;-82
2023/10/22 09:57:46;;;;;;;2.03;1.20;;;;;;;13.98;100.00;92190.09;6305247;22;20015;-82
2023/10/22 10:00:12;;;;;;;1.90;1.20;;;;;;;14.20;100.00;92187.25;6276184;22;20410;-82
2023/10/22 10:02:43;;;;;;;3.28;1.30;;;;;;;14.19;100.00;92185.72;6276264;22;20019;-82
2023/10/22 10:05:12;;;;;;;4.18;1.58;;;;;;;13.95;100.00;92188.88;6303822;22;20004;-82
2023/10/22 10:07:39;;;;;;;4.68;1.80;;;;;;;13.92;100.00;92187.63;6277264;22;20007;-81
2023/10/22 10:10:06;;;;;;;2.88;1.50;;;;;;;13.97;100.00;92191.19;6306004;22;20011;-80
2023/10/22 10:12:35;;;;;;;3.55;1.38;;;;;;;14.38;100.00;92187.94;6304065;22;19999;-81
2023/10/22 10:15:01;;;;;;;2.60;1.40;;;;;;;14.78;100.00;92198.94;6305881;22;20010;-81
2023/10/22 10:17:27;;;;;;;4.00;1.88;;;;;;;14.99;100.00;92196.38;6253600;22;20011;-82
2023/10/22 10:20:30;;;;;;;5.07;1.92;;;;;;;15.05;100.00;92193.53;6306014;22;20072;-82
2023/10/22 10:23:12;;;;;;;2.45;1.45;;;;;;;14.67;100.00;92191.72;6307277;22;20021;-81
2023/10/22 10:25:39;;;;;;;4.97;2.08;;;;;;;14.24;100.00;92192.66;6310034;22;20039;-83
2023/10/22 10:28:06;;;;;;;3.22;1.60;;;;;;;13.95;100.00;92197.53;6282007;22;20379;-81
2023/10/22 10:30:33;;;;;;;3.28;1.70;;;;;;;13.81;100.00;92196.94;6281257;22;20028;-84
2023/10/22 10:32:58;;;;;;;2.88;1.77;;;;;;;14.11;100.00;92204.94;6255980;22;19995;-82
2023/10/22 10:35:26;;;;;;;2.17;1.27;;;;;;;14.20;100.00;92203.03;6305671;22;20110;-81
2023/10/22 10:38:13;;;;;;;2.17;1.15;;;;;;;14.40;100.00;92206.84;6282519;22;20031;-83
2023/10/22 10:40:42;;;;;;;2.90;1.30;;;;;;;14.54;100.00;92207.41;6311870;22;20109;-83
2023/10/22 10:43:07;;;;;;;2.13;1.40;;;;;;;14.21;100.00;92201.16;6308633;22;20022;-83
2023/10/22 10:45:33;;;;;;;3.47;1.50;;;;;;;13.89;100.00;92217.22;6274778;22;20046;-81
2023/10/22 10:47:59;;;;;;;2.85;1.55;;;;;;;13.85;100.00;92216.28;6281388;22;20015;-82
2023/10/22 10:50:24;;;;;;;3.35;1.40;;;;;;;14.29;100.00;92210.91;6278296;22;20047;-82
2023/10/22 10:52:52;;;;;;;6.68;1.80;;;;;;;14.62;100.00;92211.13;6275484;22;20008;-81
2023/10/22 10:55:20;;;;;;;5.63;1.77;;;;;;;15.10;100.00;92196.72;6278027;22;20004;-81
2023/10/22 10:57:53;;;;;;;5.38;1.80;;;;;;;15.04;100.00;92198.03;6278788;22;20074;-81
2023/10/22 11:00:30;;;;;;;4.60;1.73;;;;;;;15.34;100.00;92198.75;6278901;22;20012;-81
2023/10/22 11:03:04;;;;;;;4.60;1.48;;;;;;;15.03;100.00;92200.97;6277758;22;20363;-83
2023/10/22 11:05:40;;;;;;;3.33;1.73;;;;;;;14.93;100.00;92202.13;6281017;22;20014;-83
2023/10/22 11:08:15;;;;;;;4.03;2.22;;;;;;;15.01;100.00;92198.66;6279301;22;20011;-79
2023/10/22 11:10:41;;;;;;;2.60;1.50;;;;;;;15.30;100.00;92189.94;6277024;22;20018;-82
2023/10/22 11:13:08;;;;;;;2.85;1.60;;;;;;;15.09;100.00;92197.84;6282612;22;20000;-81
2023/10/22 11:15:36;;;;;;;3.13;1.60;;;;;;;15.34;100.00;92201.38;6282155;22;20038;-81
2023/10/22 11:18:07;;;;;;;3.67;2.00;;;;;;;15.49;100.00;92199.25;6281095;22;20004;-82
2023/10/22 11:20:35;;;;;;;7.45;2.58;;;;;;;15.45;100.00;92196.50;6281550;22;20019;-82
2023/10/22 11:23:01;;;;;;;5.10;2.15;;;;;;;15.04;100.00;92203.31;6281254;22;20006;-81
2023/10/22 11:25:28;;;;;;;3.13;1.77;;;;;;;15.29;100.00;92198.16;6278201;22;20015;-82
2023/10/22 11:27:54;;;;;;;3.03;1.83;;;;;;;15.31;100.00;92195.97;6281896;22;20414;-81